createdAt,value
2023-02-21T00:03:05.911Z,101493.53
2023-02-21T00:08:28.712Z,101495.22
2023-02-21T00:13:54.956Z,101511.25
2023-02-21T00:19:17.320Z,101517.56
2023-02-21T00:24:38.747Z,101509.22
2023-02-21T00:29:59.196Z,101519.75
2023-02-21T00:35:23.682Z,101514.69
2023-02-21T00:40:44.319Z,101525.56
2023-02-21T00:46:05.280Z,101538.03
2023-02-21T00:51:28.926Z,101529.97
2023-02-21T00:56:53.032Z,101535.19
2023-02-21T01:02:13.176Z,101539.38
2023-02-21T01:07:35.928Z,101536.50
2023-02-21T01:13:00.966Z,101534.94
2023-02-21T01:18:22.061Z,101541.03
2023-02-21T01:23:42.136Z,101544.28
2023-02-21T01:29:06.303Z,101542.06
2023-02-21T01:34:26.632Z,101546.84
2023-02-21T01:39:49.316Z,101547.03
2023-02-21T01:45:55.767Z,101549.16
2023-02-21T01:51:17.649Z,101552.13
2023-02-21T01:56:37.972Z,101539.25
2023-02-21T02:02:05.816Z,101545.88
2023-02-21T02:07:28.732Z,101560.19
2023-02-21T02:12:59.982Z,101560.50
2023-02-21T02:18:28.715Z,101552.78
2023-02-21T02:23:36.106Z,101551.09
2023-02-21T02:29:16.550Z,101551.94
2023-02-21T02:34:39.965Z,101564.56
2023-02-21T02:40:24.723Z,101575.25
2023-02-21T02:45:32.356Z,101585.78
2023-02-21T02:50:36.720Z,101584.94
2023-02-21T02:55:43.305Z,101593.06
2023-02-21T03:00:57.679Z,101593.06
2023-02-21T03:06:17.786Z,101588.88
2023-02-21T03:11:25.603Z,101592.69
2023-02-21T03:16:36.685Z,101608.81
2023-02-21T03:21:45.307Z,101607.00
2023-02-21T03:26:58.285Z,101603.63
2023-02-21T03:32:36.353Z,101615.31
2023-02-21T03:37:45.121Z,101601.28
2023-02-21T03:42:48.962Z,101624.44
2023-02-21T03:47:54.245Z,101615.88
2023-02-21T03:52:58.625Z,101618.69
2023-02-21T03:58:03.754Z,101617.84
2023-02-21T04:03:07.668Z,101612.66
2023-02-21T04:08:15.400Z,101613.94
2023-02-21T04:13:19.493Z,101609.59
2023-02-21T04:18:22.378Z,101611.88
2023-02-21T04:23:28.421Z,101621.84
2023-02-21T04:28:30.555Z,101622.81
2023-02-21T04:33:32.371Z,101615.81
2023-02-21T04:38:34.991Z,101611.47
2023-02-21T04:43:36.779Z,101612.47
2023-02-21T04:48:43.240Z,101609.94
2023-02-21T04:53:47.469Z,101608.97
2023-02-21T04:58:52.898Z,101601.94
2023-02-21T05:03:59.418Z,101604.75
2023-02-21T05:09:04.616Z,101601.13
2023-02-21T05:14:12.281Z,101614.44
2023-02-21T05:19:27.428Z,101614.56
2023-02-21T05:24:31.143Z,101610.38
2023-02-21T05:29:35.034Z,101615.56
2023-02-21T05:34:37.072Z,101619.38
2023-02-21T05:39:39.452Z,101616.53
2023-02-21T05:44:46.535Z,101610.38
2023-02-21T05:49:51.599Z,101616.97
2023-02-21T05:54:56.042Z,101613.28
2023-02-21T05:59:57.764Z,101624.78
2023-02-21T06:05:05.485Z,101622.69
2023-02-21T06:10:09.522Z,101631.94
2023-02-21T06:15:16.858Z,101637.41
2023-02-21T06:20:18.836Z,101635.63
2023-02-21T06:25:25.453Z,101634.91
2023-02-21T06:30:27.226Z,101630.69
2023-02-21T06:35:29.876Z,101636.88
2023-02-21T06:40:31.579Z,101638.84
2023-02-21T06:45:35.763Z,101642.34
2023-02-21T06:50:37.523Z,101648.50
2023-02-21T06:55:39.293Z,101644.72
2023-02-21T07:00:41.239Z,101636.38
2023-02-21T07:05:43.997Z,101643.69
2023-02-21T07:10:45.719Z,101642.41
2023-02-21T07:15:47.750Z,101646.91
2023-02-21T07:20:51.905Z,101654.22
2023-02-21T07:25:53.562Z,101642.03
2023-02-21T07:30:57.593Z,101648.34
2023-02-21T07:36:04.764Z,101654.34
2023-02-21T07:41:06.590Z,101665.44
2023-02-21T07:46:15.084Z,101669.50
2023-02-21T07:51:17.452Z,101677.50
2023-02-21T07:56:22.397Z,101678.91
2023-02-21T08:01:25.803Z,101686.19
2023-02-21T08:06:27.506Z,101699.50
2023-02-21T08:11:29.389Z,101699.91
2023-02-21T08:16:36.169Z,101706.63
2023-02-21T08:21:39.697Z,101702.78
2023-02-21T08:26:45.500Z,101706.44
2023-02-21T08:31:48.511Z,101709.66
2023-02-21T08:36:50.787Z,101721.00
2023-02-21T08:41:55.454Z,101724.53
2023-02-21T08:46:59.490Z,101726.75
2023-02-21T08:52:01.727Z,101729.94
2023-02-21T08:57:04.593Z,101728.09
2023-02-21T09:02:12.608Z,101730.38
2023-02-21T09:07:15.885Z,101729.63
2023-02-21T09:12:18.843Z,101723.59
2023-02-21T09:17:24.071Z,101713.41
2023-02-21T09:22:28.457Z,101717.13
2023-02-21T09:27:37.527Z,101725.00
2023-02-21T09:32:44.079Z,101728.81
2023-02-21T09:37:48.887Z,101719.13
2023-02-21T09:42:55.135Z,101713.50
2023-02-21T09:47:59.705Z,101732.44
2023-02-21T09:53:01.716Z,101724.13
2023-02-21T09:58:03.571Z,101723.81
2023-02-21T10:03:28.463Z,101734.09
2023-02-21T10:08:38.428Z,101737.78
2023-02-21T10:13:50.664Z,101744.63
2023-02-21T10:19:19.330Z,101755.88
2023-02-21T10:24:27.989Z,101748.47
2023-02-21T10:29:56.346Z,101751.44
2023-02-21T10:34:58.743Z,101763.78
2023-02-21T10:40:18.725Z,101770.97
2023-02-21T10:45:30.676Z,101774.38
2023-02-21T10:50:51.510Z,101771.94
2023-02-21T10:56:15.786Z,101764.81
2023-02-21T11:01:33.204Z,101775.25
2023-02-21T11:06:39.916Z,101775.06
2023-02-21T11:11:50.452Z,101772.25
2023-02-21T11:17:06.963Z,101774.78
2023-02-21T11:22:12.721Z,101772.88
2023-02-21T11:27:15.639Z,101771.06
2023-02-21T11:32:24.538Z,101775.13
2023-02-21T11:37:32.972Z,101778.75
2023-02-21T11:42:38.001Z,101781.44
2023-02-21T11:47:47.034Z,101775.25
2023-02-21T11:53:04.654Z,101782.13
2023-02-21T11:58:34.763Z,101777.38
2023-02-21T12:04:04.662Z,101773.75
2023-02-21T12:09:18.726Z,101770.97
2023-02-21T12:14:46.387Z,101755.03
2023-02-21T12:20:00.481Z,101747.06
2023-02-21T12:25:25.912Z,101758.81
2023-02-21T12:30:45.390Z,101748.03
2023-02-21T12:36:15.540Z,101744.88
2023-02-21T12:41:32.552Z,101746.94
2023-02-21T12:46:43.324Z,101741.75
2023-02-21T12:51:54.349Z,101744.09
2023-02-21T12:57:04.516Z,101745.81
2023-02-21T13:02:16.353Z,101746.25
2023-02-21T13:07:32.722Z,101749.75
2023-02-21T13:12:37.106Z,101745.56
2023-02-21T13:17:42.320Z,101732.06
2023-02-21T13:23:41.367Z,101726.75
2023-02-21T13:28:46.686Z,101731.91
2023-02-21T13:33:56.000Z,101719.03
2023-02-21T13:39:38.320Z,101720.19
2023-02-21T13:44:45.158Z,101719.72
2023-02-21T13:49:55.094Z,101715.06
2023-02-21T13:55:15.017Z,101713.06
2023-02-21T14:00:27.632Z,101720.09
2023-02-21T14:05:44.559Z,101712.22
2023-02-21T14:11:03.245Z,101715.66
2023-02-21T14:16:08.120Z,101710.50
2023-02-21T14:21:15.762Z,101710.00
2023-02-21T14:26:57.749Z,101703.28
2023-02-21T14:32:04.795Z,101710.13
2023-02-21T14:37:32.017Z,101701.94
2023-02-21T14:42:45.070Z,101707.63
2023-02-21T14:48:12.631Z,101707.50
2023-02-21T14:53:17.556Z,101695.97
2023-02-21T14:58:51.208Z,101708.66
2023-02-21T15:04:05.906Z,101711.66
2023-02-21T15:09:19.469Z,101706.94
2023-02-21T15:14:24.220Z,101710.31
2023-02-21T15:19:32.098Z,101711.78
2023-02-21T15:24:37.356Z,101715.53
2023-02-21T15:29:40.195Z,101708.81
2023-02-21T15:34:46.216Z,101719.38
2023-02-21T15:40:05.898Z,101710.13
2023-02-21T15:45:14.113Z,101718.16
2023-02-21T15:50:43.973Z,101715.00
2023-02-21T15:55:46.910Z,101712.94
2023-02-21T16:00:50.288Z,101716.94
2023-02-21T16:05:55.727Z,101721.25
2023-02-21T16:11:03.175Z,101717.34
2023-02-21T16:16:05.917Z,101726.78
2023-02-21T16:21:10.465Z,101718.34
2023-02-21T16:26:16.742Z,101730.25
2023-02-21T16:31:28.736Z,101724.00
2023-02-21T16:36:35.188Z,101726.47
2023-02-21T16:41:40.456Z,101727.41
2023-02-21T16:46:46.098Z,101726.03
2023-02-21T16:51:49.144Z,101730.19
2023-02-21T16:56:52.552Z,101733.63
2023-02-21T17:01:58.941Z,101732.94
2023-02-21T17:07:04.336Z,101739.59
2023-02-21T17:12:10.144Z,101739.22
2023-02-21T17:17:12.668Z,101745.56
2023-02-21T17:22:16.972Z,101751.91
2023-02-21T17:27:21.478Z,101751.22
2023-02-21T17:32:27.094Z,101761.22
2023-02-21T17:37:33.415Z,101760.53
2023-02-21T17:42:38.093Z,101764.19
2023-02-21T17:47:41.064Z,101760.84
2023-02-21T17:52:43.139Z,101767.16
2023-02-21T17:57:45.064Z,101761.31
2023-02-21T18:02:48.473Z,101761.59
2023-02-21T18:07:53.448Z,101767.38
2023-02-21T18:12:59.646Z,101760.53
2023-02-21T18:18:07.873Z,101760.53
2023-02-21T18:23:12.512Z,101763.50
2023-02-21T18:28:16.480Z,101766.31
2023-02-21T18:33:18.735Z,101765.50
2023-02-21T18:38:22.295Z,101774.47
2023-02-21T18:43:27.531Z,101769.44
2023-02-21T18:48:29.280Z,101768.91
2023-02-21T18:53:35.068Z,101768.22
2023-02-21T18:58:40.748Z,101780.72
2023-02-21T19:03:42.529Z,101768.53
2023-02-21T19:08:49.378Z,101773.69
2023-02-21T19:13:51.098Z,101770.19
2023-02-21T19:18:57.731Z,101763.47
2023-02-21T19:24:10.204Z,101760.97
2023-02-21T19:29:11.961Z,101769.97
2023-02-21T19:34:19.499Z,101765.91
2023-02-21T19:39:26.883Z,101771.25
2023-02-21T19:44:33.256Z,101770.03
2023-02-21T19:49:34.988Z,101775.81
2023-02-21T19:54:41.105Z,101778.50
2023-02-21T19:59:43.046Z,101780.00
2023-02-21T20:04:52.211Z,101776.34
2023-02-21T20:09:57.400Z,101783.38
2023-02-21T20:14:59.255Z,101777.47
2023-02-21T20:20:01.261Z,101775.81
2023-02-21T20:25:18.970Z,101776.50
2023-02-21T20:30:42.041Z,101777.63
2023-02-21T20:36:01.037Z,101777.63
2023-02-21T20:41:25.404Z,101776.78
2023-02-21T20:46:48.646Z,101772.47
2023-02-21T20:58:13.937Z,101761.91
2023-02-21T21:03:19.840Z,101760.25
2023-02-21T21:08:22.116Z,101759.56
2023-02-21T21:13:24.653Z,101753.66
2023-02-21T21:18:27.100Z,101760.84
2023-02-21T21:23:28.933Z,101751.97
2023-02-21T21:28:36.455Z,101754.81
2023-02-21T21:33:41.088Z,101751.44
2023-02-21T21:38:43.193Z,101750.06
2023-02-21T21:43:45.978Z,101747.25
2023-02-21T21:48:47.960Z,101747.94
2023-02-21T21:53:49.821Z,101745.28
2023-02-21T21:58:51.563Z,101740.09
2023-02-21T22:03:56.377Z,101741.91
2023-02-21T22:09:00.369Z,101746.38
2023-02-21T22:14:02.819Z,101729.72
2023-02-21T22:19:07.605Z,101728.84
2023-02-21T22:24:15.187Z,101729.72
2023-02-21T22:29:19.517Z,101719.31
2023-02-21T22:34:23.857Z,101729.16
2023-02-21T22:39:26.992Z,101730.13
2023-02-21T22:44:29.438Z,101731.84
2023-02-21T22:49:34.569Z,101729.63
2023-02-21T22:54:41.325Z,101725.13
2023-02-21T22:59:43.687Z,101725.13
2023-02-21T23:04:46.704Z,101724.41
2023-02-21T23:09:48.579Z,101721.75
2023-02-21T23:14:51.585Z,101707.59
2023-02-21T23:19:53.365Z,101702.38
2023-02-21T23:24:55.067Z,101706.88
2023-02-21T23:30:00.694Z,101700.97
2023-02-21T23:35:03.559Z,101692.97
2023-02-21T23:40:16.375Z,101690.28
2023-02-21T23:45:22.453Z,101701.78
2023-02-21T23:50:30.538Z,101692.00
2023-02-21T23:55:35.830Z,101693.66
